sensor_id;sensor_type;location;lat;lon;timestamp;temperature;humidity
67196;DHT22;54122;53.538;49.366;2022-07-11T00:02:13;18.20;91.00
67196;DHT22;54122;53.538;49.366;2022-07-11T00:04:40;18.10;91.10
67196;DHT22;54122;53.538;49.366;2022-07-11T00:07:06;18.10;91.30
67196;DHT22;54122;53.538;49.366;2022-07-11T00:09:33;18.10;91.40
67196;DHT22;54122;53.538;49.366;2022-07-11T00:11:59;18.10;91.30
67196;DHT22;54122;53.538;49.366;2022-07-11T00:14:26;18.10;91.30
67196;DHT22;54122;53.538;49.366;2022-07-11T00:16:53;18.10;91.40
67196;DHT22;54122;53.538;49.366;2022-07-11T00:19:20;18.00;91.40
67196;DHT22;54122;53.538;49.366;2022-07-11T00:21:47;18.00;91.50
67196;DHT22;54122;53.538;49.366;2022-07-11T00:24:13;18.00;91.50
67196;DHT22;54122;53.538;49.366;2022-07-11T00:26:40;18.00;91.50
67196;DHT22;54122;53.538;49.366;2022-07-11T00:29:06;18.00;91.60
67196;DHT22;54122;53.538;49.366;2022-07-11T00:31:32;17.90;91.60
67196;DHT22;54122;53.538;49.366;2022-07-11T00:33:59;17.90;91.70
67196;DHT22;54122;53.538;49.366;2022-07-11T00:36:26;17.90;91.70
67196;DHT22;54122;53.538;49.366;2022-07-11T00:38:52;17.90;91.80
67196;DHT22;54122;53.538;49.366;2022-07-11T00:41:18;17.90;91.90
67196;DHT22;54122;53.538;49.366;2022-07-11T00:43:59;17.80;91.90
67196;DHT22;54122;53.538;49.366;2022-07-11T00:46:28;17.80;91.90
67196;DHT22;54122;53.538;49.366;2022-07-11T00:48:56;17.80;92.10
67196;DHT22;54122;53.538;49.366;2022-07-11T00:51:23;17.80;92.20
67196;DHT22;54122;53.538;49.366;2022-07-11T00:53:52;17.80;92.20
67196;DHT22;54122;53.538;49.366;2022-07-11T00:56:23;17.90;92.20
67196;DHT22;54122;53.538;49.366;2022-07-11T00:58:51;18.00;92.00
67196;DHT22;54122;53.538;49.366;2022-07-11T01:01:18;18.00;92.00
67196;DHT22;54122;53.538;49.366;2022-07-11T01:03:45;17.90;91.80
67196;DHT22;54122;53.538;49.366;2022-07-11T01:06:11;18.00;91.70
67196;DHT22;54122;53.538;49.366;2022-07-11T01:08:39;18.00;91.60
67196;DHT22;54122;53.538;49.366;2022-07-11T01:11:10;18.00;91.70
67196;DHT22;54122;53.538;49.366;2022-07-11T01:13:42;18.10;91.60
67196;DHT22;54122;53.538;49.366;2022-07-11T01:16:17;18.10;91.50
67196;DHT22;54122;53.538;49.366;2022-07-11T01:19:01;18.20;91.40
67196;DHT22;54122;53.538;49.366;2022-07-11T01:21:38;18.20;91.10
67196;DHT22;54122;53.538;49.366;2022-07-11T01:24:05;18.20;91.10
67196;DHT22;54122;53.538;49.366;2022-07-11T01:26:32;18.20;90.90
67196;DHT22;54122;53.538;49.366;2022-07-11T01:29:06;18.30;90.80
67196;DHT22;54122;53.538;49.366;2022-07-11T01:31:33;18.40;90.50
67196;DHT22;54122;53.538;49.366;2022-07-11T01:33:59;18.40;90.30
67196;DHT22;54122;53.538;49.366;2022-07-11T01:36:25;18.50;90.20
67196;DHT22;54122;53.538;49.366;2022-07-11T01:38:52;18.50;90.10
67196;DHT22;54122;53.538;49.366;2022-07-11T01:41:18;18.60;89.90
67196;DHT22;54122;53.538;49.366;2022-07-11T01:43:44;18.60;89.10
67196;DHT22;54122;53.538;49.366;2022-07-11T01:46:10;18.80;88.70
67196;DHT22;54122;53.538;49.366;2022-07-11T01:48:36;19.50;87.70
67196;DHT22;54122;53.538;49.366;2022-07-11T01:51:03;20.80;81.60
67196;DHT22;54122;53.538;49.366;2022-07-11T01:53:29;22.10;75.10
67196;DHT22;54122;53.538;49.366;2022-07-11T01:55:55;23.30;71.00
67196;DHT22;54122;53.538;49.366;2022-07-11T01:58:21;24.20;65.90
67196;DHT22;54122;53.538;49.366;2022-07-11T02:00:47;25.00;62.80
67196;DHT22;54122;53.538;49.366;2022-07-11T02:03:14;25.80;60.10
67196;DHT22;54122;53.538;49.366;2022-07-11T02:05:40;26.50;57.40
67196;DHT22;54122;53.538;49.366;2022-07-11T02:08:07;27.20;55.00
67196;DHT22;54122;53.538;49.366;2022-07-11T02:10:48;27.60;53.10
67196;DHT22;54122;53.538;49.366;2022-07-11T02:13:17;28.00;52.40
67196;DHT22;54122;53.538;49.366;2022-07-11T02:15:43;28.60;50.60
67196;DHT22;54122;53.538;49.366;2022-07-11T02:18:11;29.00;49.10
67196;DHT22;54122;53.538;49.366;2022-07-11T02:20:40;29.40;48.10
67196;DHT22;54122;53.538;49.366;2022-07-11T02:23:07;29.80;47.10
67196;DHT22;54122;53.538;49.366;2022-07-11T02:25:33;30.10;46.50
67196;DHT22;54122;53.538;49.366;2022-07-11T02:28:06;30.10;45.90
67196;DHT22;54122;53.538;49.366;2022-07-11T02:30:36;30.30;45.70
67196;DHT22;54122;53.538;49.366;2022-07-11T02:33:03;30.40;45.10
67196;DHT22;54122;53.538;49.366;2022-07-11T02:35:30;30.40;45.00
67196;DHT22;54122;53.538;49.366;2022-07-11T02:37:56;30.50;44.80
67196;DHT22;54122;53.538;49.366;2022-07-11T02:40:23;30.50;44.40
67196;DHT22;54122;53.538;49.366;2022-07-11T02:42:49;30.10;45.40
67196;DHT22;54122;53.538;49.366;2022-07-11T02:45:15;29.30;47.80
67196;DHT22;54122;53.538;49.366;2022-07-11T02:47:41;28.50;49.90
67196;DHT22;54122;53.538;49.366;2022-07-11T02:50:09;28.40;50.70
67196;DHT22;54122;53.538;49.366;2022-07-11T02:52:38;28.80;49.20
67196;DHT22;54122;53.538;49.366;2022-07-11T02:55:06;29.70;47.00
67196;DHT22;54122;53.538;49.366;2022-07-11T02:57:33;30.60;45.20
67196;DHT22;54122;53.538;49.366;2022-07-11T03:00:00;31.40;42.70
67196;DHT22;54122;53.538;49.366;2022-07-11T03:02:27;32.20;41.80
67196;DHT22;54122;53.538;49.366;2022-07-11T03:04:54;32.80;40.40
67196;DHT22;54122;53.538;49.366;2022-07-11T03:07:20;33.20;39.50
67196;DHT22;54122;53.538;49.366;2022-07-11T03:09:46;33.30;39.30
67196;DHT22;54122;53.538;49.366;2022-07-11T03:12:12;33.30;38.50
67196;DHT22;54122;53.538;49.366;2022-07-11T03:14:38;33.40;38.50
67196;DHT22;54122;53.538;49.366;2022-07-11T03:17:05;33.50;38.00
67196;DHT22;54122;53.538;49.366;2022-07-11T03:19:31;33.70;37.50
67196;DHT22;54122;53.538;49.366;2022-07-11T03:21:57;33.70;37.10
67196;DHT22;54122;53.538;49.366;2022-07-11T03:24:23;33.90;37.10
67196;DHT22;54122;53.538;49.366;2022-07-11T03:26:49;34.10;36.70
67196;DHT22;54122;53.538;49.366;2022-07-11T03:29:16;34.30;36.50
67196;DHT22;54122;53.538;49.366;2022-07-11T03:31:43;34.70;35.10
67196;DHT22;54122;53.538;49.366;2022-07-11T03:34:09;34.60;35.20
67196;DHT22;54122;53.538;49.366;2022-07-11T03:36:36;34.70;34.20
67196;DHT22;54122;53.538;49.366;2022-07-11T03:39:02;35.00;34.50
67196;DHT22;54122;53.538;49.366;2022-07-11T03:41:28;35.30;34.00
67196;DHT22;54122;53.538;49.366;2022-07-11T03:43:54;35.80;33.30
67196;DHT22;54122;53.538;49.366;2022-07-11T03:46:22;36.00;32.60
67196;DHT22;54122;53.538;49.366;2022-07-11T03:48:49;36.40;31.70
67196;DHT22;54122;53.538;49.366;2022-07-11T03:51:16;36.50;31.70
67196;DHT22;54122;53.538;49.366;2022-07-11T03:53:45;37.00;31.00
67196;DHT22;54122;53.538;49.366;2022-07-11T03:56:11;37.30;30.90
67196;DHT22;54122;53.538;49.366;2022-07-11T03:58:37;37.70;31.30
67196;DHT22;54122;53.538;49.366;2022-07-11T04:01:04;37.90;29.50
67196;DHT22;54122;53.538;49.366;2022-07-11T04:03:30;37.80;29.10
67196;DHT22;54122;53.538;49.366;2022-07-11T04:05:56;37.70;29.50
67196;DHT22;54122;53.538;49.366;2022-07-11T04:08:22;37.70;29.80
67196;DHT22;54122;53.538;49.366;2022-07-11T04:10:48;37.90;30.20
67196;DHT22;54122;53.538;49.366;2022-07-11T04:13:15;38.20;29.50
67196;DHT22;54122;53.538;49.366;2022-07-11T04:15:41;38.50;29.30
67196;DHT22;54122;53.538;49.366;2022-07-11T04:18:07;38.60;28.90
67196;DHT22;54122;53.538;49.366;2022-07-11T04:20:33;38.70;28.90
67196;DHT22;54122;53.538;49.366;2022-07-11T04:22:59;38.70;28.50
67196;DHT22;54122;53.538;49.366;2022-07-11T04:25:26;38.50;28.50
67196;DHT22;54122;53.538;49.366;2022-07-11T04:27:52;38.40;28.20
67196;DHT22;54122;53.538;49.366;2022-07-11T04:30:18;38.40;28.70
67196;DHT22;54122;53.538;49.366;2022-07-11T04:32:44;38.60;28.40
67196;DHT22;54122;53.538;49.366;2022-07-11T04:35:10;38.90;27.90
67196;DHT22;54122;53.538;49.366;2022-07-11T04:37:36;38.80;27.70
67196;DHT22;54122;53.538;49.366;2022-07-11T04:40:03;39.10;27.60
67196;DHT22;54122;53.538;49.366;2022-07-11T04:42:30;39.50;26.90
67196;DHT22;54122;53.538;49.366;2022-07-11T04:44:56;40.00;26.70
67196;DHT22;54122;53.538;49.366;2022-07-11T04:47:22;40.40;26.10
67196;DHT22;54122;53.538;49.366;2022-07-11T04:49:48;40.50;25.40
67196;DHT22;54122;53.538;49.366;2022-07-11T04:52:16;40.40;25.80
67196;DHT22;54122;53.538;49.366;2022-07-11T04:54:42;40.40;25.80
67196;DHT22;54122;53.538;49.366;2022-07-11T04:57:09;40.50;25.80
67196;DHT22;54122;53.538;49.366;2022-07-11T04:59:35;40.60;25.80
67196;DHT22;54122;53.538;49.366;2022-07-11T05:02:01;41.00;25.70
67196;DHT22;54122;53.538;49.366;2022-07-11T05:04:27;40.90;25.30
67196;DHT22;54122;53.538;49.366;2022-07-11T05:06:53;40.70;25.60
67196;DHT22;54122;53.538;49.366;2022-07-11T05:09:20;40.90;26.00
67196;DHT22;54122;53.538;49.366;2022-07-11T05:11:46;41.10;25.10
67196;DHT22;54122;53.538;49.366;2022-07-11T05:14:12;41.30;25.40
67196;DHT22;54122;53.538;49.366;2022-07-11T05:16:38;41.60;24.40
67196;DHT22;54122;53.538;49.366;2022-07-11T05:19:05;41.60;24.30
67196;DHT22;54122;53.538;49.366;2022-07-11T05:21:31;41.80;24.50
67196;DHT22;54122;53.538;49.366;2022-07-11T05:23:57;42.00;24.20
67196;DHT22;54122;53.538;49.366;2022-07-11T05:26:23;42.10;23.90
67196;DHT22;54122;53.538;49.366;2022-07-11T05:28:49;42.30;23.80
67196;DHT22;54122;53.538;49.366;2022-07-11T05:31:15;42.50;23.40
67196;DHT22;54122;53.538;49.366;2022-07-11T05:33:42;42.80;23.70
67196;DHT22;54122;53.538;49.366;2022-07-11T05:36:08;43.10;23.40
67196;DHT22;54122;53.538;49.366;2022-07-11T05:38:34;43.00;22.50
67196;DHT22;54122;53.538;49.366;2022-07-11T05:41:00;42.60;22.90
67196;DHT22;54122;53.538;49.366;2022-07-11T05:43:27;42.50;23.20
67196;DHT22;54122;53.538;49.366;2022-07-11T05:45:54;42.30;23.80
67196;DHT22;54122;53.538;49.366;2022-07-11T05:48:20;41.80;23.10
67196;DHT22;54122;53.538;49.366;2022-07-11T05:50:47;42.00;23.50
67196;DHT22;54122;53.538;49.366;2022-07-11T05:53:13;42.30;22.80
67196;DHT22;54122;53.538;49.366;2022-07-11T05:55:40;42.40;22.20
67196;DHT22;54122;53.538;49.366;2022-07-11T05:58:07;42.60;22.60
67196;DHT22;54122;53.538;49.366;2022-07-11T06:00:33;42.90;21.30
67196;DHT22;54122;53.538;49.366;2022-07-11T06:02:59;42.50;21.50
67196;DHT22;54122;53.538;49.366;2022-07-11T06:05:25;42.30;20.80
67196;DHT22;54122;53.538;49.366;2022-07-11T06:07:52;41.90;21.10
67196;DHT22;54122;53.538;49.366;2022-07-11T06:10:36;41.80;21.70
67196;DHT22;54122;53.538;49.366;2022-07-11T06:13:04;42.00;21.50
67196;DHT22;54122;53.538;49.366;2022-07-11T06:15:30;42.00;20.90
67196;DHT22;54122;53.538;49.366;2022-07-11T06:17:56;41.80;21.60
67196;DHT22;54122;53.538;49.366;2022-07-11T06:20:23;41.40;21.40
67196;DHT22;54122;53.538;49.366;2022-07-11T06:22:49;41.30;21.80
67196;DHT22;54122;53.538;49.366;2022-07-11T06:25:15;40.90;21.70
67196;DHT22;54122;53.538;49.366;2022-07-11T06:27:41;40.90;22.80
67196;DHT22;54122;53.538;49.366;2022-07-11T06:30:08;41.00;22.10
67196;DHT22;54122;53.538;49.366;2022-07-11T06:32:34;41.20;22.30
67196;DHT22;54122;53.538;49.366;2022-07-11T06:35:00;41.50;21.60
67196;DHT22;54122;53.538;49.366;2022-07-11T06:37:27;41.40;21.40
67196;DHT22;54122;53.538;49.366;2022-07-11T06:39:53;41.40;20.90
67196;DHT22;54122;53.538;49.366;2022-07-11T06:42:19;41.20;21.10
67196;DHT22;54122;53.538;49.366;2022-07-11T06:44:45;41.00;21.40
67196;DHT22;54122;53.538;49.366;2022-07-11T06:47:11;41.10;21.20
67196;DHT22;54122;53.538;49.366;2022-07-11T06:49:38;40.90;21.20
67196;DHT22;54122;53.538;49.366;2022-07-11T06:52:04;41.10;21.70
67196;DHT22;54122;53.538;49.366;2022-07-11T06:54:30;41.10;20.70
67196;DHT22;54122;53.538;49.366;2022-07-11T06:56:56;41.40;20.90
67196;DHT22;54122;53.538;49.366;2022-07-11T06:59:23;41.50;21.10
67196;DHT22;54122;53.538;49.366;2022-07-11T07:01:49;41.80;20.60
67196;DHT22;54122;53.538;49.366;2022-07-11T07:04:16;41.80;19.70
67196;DHT22;54122;53.538;49.366;2022-07-11T07:06:42;41.40;20.30
67196;DHT22;54122;53.538;49.366;2022-07-11T07:09:08;41.10;20.40
67196;DHT22;54122;53.538;49.366;2022-07-11T07:11:34;41.10;19.90
67196;DHT22;54122;53.538;49.366;2022-07-11T07:14:00;41.20;20.30
67196;DHT22;54122;53.538;49.366;2022-07-11T07:16:27;41.30;20.30
67196;DHT22;54122;53.538;49.366;2022-07-11T07:18:53;41.10;20.60
67196;DHT22;54122;53.538;49.366;2022-07-11T07:21:19;40.70;20.20
67196;DHT22;54122;53.538;49.366;2022-07-11T07:23:46;40.40;20.90
67196;DHT22;54122;53.538;49.366;2022-07-11T07:26:12;40.20;21.00
67196;DHT22;54122;53.538;49.366;2022-07-11T07:28:38;40.20;21.00
67196;DHT22;54122;53.538;49.366;2022-07-11T07:31:06;40.50;21.80
67196;DHT22;54122;53.538;49.366;2022-07-11T07:33:32;41.00;20.90
67196;DHT22;54122;53.538;49.366;2022-07-11T07:35:58;40.80;21.20
67196;DHT22;54122;53.538;49.366;2022-07-11T07:38:24;41.10;20.90
67196;DHT22;54122;53.538;49.366;2022-07-11T07:40:51;41.50;20.90
67196;DHT22;54122;53.538;49.366;2022-07-11T07:43:17;41.70;20.40
67196;DHT22;54122;53.538;49.366;2022-07-11T07:45:43;42.10;20.70
67196;DHT22;54122;53.538;49.366;2022-07-11T07:48:09;42.40;20.60
67196;DHT22;54122;53.538;49.366;2022-07-11T07:50:35;42.10;21.00
67196;DHT22;54122;53.538;49.366;2022-07-11T07:53:01;41.90;20.00
67196;DHT22;54122;53.538;49.366;2022-07-11T07:55:28;42.00;21.00
67196;DHT22;54122;53.538;49.366;2022-07-11T07:57:54;42.20;20.10
67196;DHT22;54122;53.538;49.366;2022-07-11T08:00:20;42.10;19.90
67196;DHT22;54122;53.538;49.366;2022-07-11T08:03:05;42.20;19.90
67196;DHT22;54122;53.538;49.366;2022-07-11T08:05:34;42.00;20.40
67196;DHT22;54122;53.538;49.366;2022-07-11T08:08:00;40.90;21.60
67196;DHT22;54122;53.538;49.366;2022-07-11T08:10:26;40.00;22.10
67196;DHT22;54122;53.538;49.366;2022-07-11T08:12:53;39.60;23.10
67196;DHT22;54122;53.538;49.366;2022-07-11T08:15:19;39.80;22.90
67196;DHT22;54122;53.538;49.366;2022-07-11T08:17:45;40.00;21.90
67196;DHT22;54122;53.538;49.366;2022-07-11T08:20:11;39.90;22.60
67196;DHT22;54122;53.538;49.366;2022-07-11T08:22:37;40.10;22.20
67196;DHT22;54122;53.538;49.366;2022-07-11T08:25:04;40.50;22.20
67196;DHT22;54122;53.538;49.366;2022-07-11T08:27:30;40.50;20.90
67196;DHT22;54122;53.538;49.366;2022-07-11T08:29:56;40.30;21.10
67196;DHT22;54122;53.538;49.366;2022-07-11T08:32:27;40.30;20.60
67196;DHT22;54122;53.538;49.366;2022-07-11T08:34:53;40.40;22.10
67196;DHT22;54122;53.538;49.366;2022-07-11T08:37:19;40.40;21.10
67196;DHT22;54122;53.538;49.366;2022-07-11T08:39:46;40.10;21.10
67196;DHT22;54122;53.538;49.366;2022-07-11T08:42:12;39.90;21.10
67196;DHT22;54122;53.538;49.366;2022-07-11T08:44:38;39.80;21.10
67196;DHT22;54122;53.538;49.366;2022-07-11T08:47:05;39.30;22.00
67196;DHT22;54122;53.538;49.366;2022-07-11T08:49:32;38.70;20.50
67196;DHT22;54122;53.538;49.366;2022-07-11T08:51:59;38.10;21.40
67196;DHT22;54122;53.538;49.366;2022-07-11T08:54:25;37.50;22.30
67196;DHT22;54122;53.538;49.366;2022-07-11T08:56:51;37.00;20.70
67196;DHT22;54122;53.538;49.366;2022-07-11T08:59:20;36.50;21.50
67196;DHT22;54122;53.538;49.366;2022-07-11T09:01:50;36.20;23.10
67196;DHT22;54122;53.538;49.366;2022-07-11T09:04:17;36.00;22.70
67196;DHT22;54122;53.538;49.366;2022-07-11T09:06:43;36.00;21.80
67196;DHT22;54122;53.538;49.366;2022-07-11T09:09:10;36.20;22.70
67196;DHT22;54122;53.538;49.366;2022-07-11T09:11:53;36.60;21.40
67196;DHT22;54122;53.538;49.366;2022-07-11T09:14:28;36.90;21.10
67196;DHT22;54122;53.538;49.366;2022-07-11T09:16:56;36.90;21.20
67196;DHT22;54122;53.538;49.366;2022-07-11T09:19:24;37.00;22.50
67196;DHT22;54122;53.538;49.366;2022-07-11T09:22:07;36.80;23.20
67196;DHT22;54122;53.538;49.366;2022-07-11T09:25:12;36.50;23.70
67196;DHT22;54122;53.538;49.366;2022-07-11T09:28:02;36.10;25.00
67196;DHT22;54122;53.538;49.366;2022-07-11T09:30:33;36.00;24.40
67196;DHT22;54122;53.538;49.366;2022-07-11T09:33:02;36.10;23.80
67196;DHT22;54122;53.538;49.366;2022-07-11T09:35:32;35.90;22.50
67196;DHT22;54122;53.538;49.366;2022-07-11T09:38:01;35.90;23.20
67196;DHT22;54122;53.538;49.366;2022-07-11T09:40:28;35.90;23.50
67196;DHT22;54122;53.538;49.366;2022-07-11T09:42:55;36.10;24.00
67196;DHT22;54122;53.538;49.366;2022-07-11T09:45:23;36.30;23.50
67196;DHT22;54122;53.538;49.366;2022-07-11T09:47:52;36.30;24.10
67196;DHT22;54122;53.538;49.366;2022-07-11T09:53:07;36.40;23.80
67196;DHT22;54122;53.538;49.366;2022-07-11T09:58:06;36.40;23.30
67196;DHT22;54122;53.538;49.366;2022-07-11T10:00:33;36.30;24.00
67196;DHT22;54122;53.538;49.366;2022-07-11T10:03:02;36.20;24.40
67196;DHT22;54122;53.538;49.366;2022-07-11T10:05:29;36.10;24.50
67196;DHT22;54122;53.538;49.366;2022-07-11T10:07:57;36.00;23.60
67196;DHT22;54122;53.538;49.366;2022-07-11T10:10:24;35.80;24.60
67196;DHT22;54122;53.538;49.366;2022-07-11T10:12:52;35.60;24.50
67196;DHT22;54122;53.538;49.366;2022-07-11T10:15:35;35.50;24.80
67196;DHT22;54122;53.538;49.366;2022-07-11T10:18:07;35.70;24.60
67196;DHT22;54122;53.538;49.366;2022-07-11T10:32:07;35.20;25.80
67196;DHT22;54122;53.538;49.366;2022-07-11T10:34:34;35.20;25.50
67196;DHT22;54122;53.538;49.366;2022-07-11T10:37:05;35.20;25.70
67196;DHT22;54122;53.538;49.366;2022-07-11T10:39:36;35.20;25.40
67196;DHT22;54122;53.538;49.366;2022-07-11T10:42:05;35.10;24.40
67196;DHT22;54122;53.538;49.366;2022-07-11T10:47:42;35.10;25.10
67196;DHT22;54122;53.538;49.366;2022-07-11T10:52:56;35.00;25.00
67196;DHT22;54122;53.538;49.366;2022-07-11T10:55:35;35.10;24.90
67196;DHT22;54122;53.538;49.366;2022-07-11T10:58:06;35.10;24.30
67196;DHT22;54122;53.538;49.366;2022-07-11T11:00:33;35.10;24.60
67196;DHT22;54122;53.538;49.366;2022-07-11T11:03:08;35.20;24.90
67196;DHT22;54122;53.538;49.366;2022-07-11T11:05:51;35.30;24.70
67196;DHT22;54122;53.538;49.366;2022-07-11T11:11:01;35.10;24.20
67196;DHT22;54122;53.538;49.366;2022-07-11T11:13:29;35.00;25.50
67196;DHT22;54122;53.538;49.366;2022-07-11T11:15:57;34.90;24.90
67196;DHT22;54122;53.538;49.366;2022-07-11T11:21:17;34.90;26.00
67196;DHT22;54122;53.538;49.366;2022-07-11T11:24:01;34.90;25.40
67196;DHT22;54122;53.538;49.366;2022-07-11T11:26:50;34.80;25.70
67196;DHT22;54122;53.538;49.366;2022-07-11T11:29:24;34.70;25.60
67196;DHT22;54122;53.538;49.366;2022-07-11T11:31:57;34.70;25.30
67196;DHT22;54122;53.538;49.366;2022-07-11T11:34:24;34.80;24.80
67196;DHT22;54122;53.538;49.366;2022-07-11T11:36:55;34.90;25.50
67196;DHT22;54122;53.538;49.366;2022-07-11T11:39:30;35.00;26.40
67196;DHT22;54122;53.538;49.366;2022-07-11T11:42:08;35.00;25.80
67196;DHT22;54122;53.538;49.366;2022-07-11T11:44:47;35.10;26.90
67196;DHT22;54122;53.538;49.366;2022-07-11T11:47:15;35.10;24.90
67196;DHT22;54122;53.538;49.366;2022-07-11T11:49:45;35.00;24.90
67196;DHT22;54122;53.538;49.366;2022-07-11T11:52:11;34.90;25.20
67196;DHT22;54122;53.538;49.366;2022-07-11T11:54:38;34.90;25.40
67196;DHT22;54122;53.538;49.366;2022-07-11T11:57:09;34.80;25.40
67196;DHT22;54122;53.538;49.366;2022-07-11T11:59:38;34.70;25.30
67196;DHT22;54122;53.538;49.366;2022-07-11T12:02:04;34.70;25.90
67196;DHT22;54122;53.538;49.366;2022-07-11T12:04:33;34.70;26.00
67196;DHT22;54122;53.538;49.366;2022-07-11T12:07:00;34.70;25.80
67196;DHT22;54122;53.538;49.366;2022-07-11T12:09:27;34.80;25.40
67196;DHT22;54122;53.538;49.366;2022-07-11T12:12:18;34.60;24.80
67196;DHT22;54122;53.538;49.366;2022-07-11T12:15:04;34.60;24.10
67196;DHT22;54122;53.538;49.366;2022-07-11T12:17:32;34.40;25.30
67196;DHT22;54122;53.538;49.366;2022-07-11T12:19:58;34.40;24.40
67196;DHT22;54122;53.538;49.366;2022-07-11T12:22:25;34.30;24.30
67196;DHT22;54122;53.538;49.366;2022-07-11T12:24:52;34.30;24.00
67196;DHT22;54122;53.538;49.366;2022-07-11T12:27:24;34.30;25.30
67196;DHT22;54122;53.538;49.366;2022-07-11T12:29:51;34.40;24.90
67196;DHT22;54122;53.538;49.366;2022-07-11T12:32:18;34.30;25.50
67196;DHT22;54122;53.538;49.366;2022-07-11T12:34:49;34.30;25.70
67196;DHT22;54122;53.538;49.366;2022-07-11T12:37:16;34.30;25.70
67196;DHT22;54122;53.538;49.366;2022-07-11T12:39:48;34.10;25.40
67196;DHT22;54122;53.538;49.366;2022-07-11T12:42:31;34.00;25.90
67196;DHT22;54122;53.538;49.366;2022-07-11T12:45:03;33.90;26.00
67196;DHT22;54122;53.538;49.366;2022-07-11T12:50:14;33.90;25.60
67196;DHT22;54122;53.538;49.366;2022-07-11T12:52:43;34.00;25.40
67196;DHT22;54122;53.538;49.366;2022-07-11T12:55:24;34.00;25.10
67196;DHT22;54122;53.538;49.366;2022-07-11T12:58:20;34.00;25.70
67196;DHT22;54122;53.538;49.366;2022-07-11T13:00:59;34.00;25.30
67196;DHT22;54122;53.538;49.366;2022-07-11T13:03:29;33.90;25.00
67196;DHT22;54122;53.538;49.366;2022-07-11T13:05:57;33.90;25.30
67196;DHT22;54122;53.538;49.366;2022-07-11T13:08:36;33.80;24.50
67196;DHT22;54122;53.538;49.366;2022-07-11T13:11:16;33.90;24.10
67196;DHT22;54122;53.538;49.366;2022-07-11T13:13:44;33.80;24.80
67196;DHT22;54122;53.538;49.366;2022-07-11T13:16:14;33.80;24.60
67196;DHT22;54122;53.538;49.366;2022-07-11T13:18:40;33.80;24.00
67196;DHT22;54122;53.538;49.366;2022-07-11T13:21:07;33.80;24.80
67196;DHT22;54122;53.538;49.366;2022-07-11T13:23:34;33.80;25.00
67196;DHT22;54122;53.538;49.366;2022-07-11T13:26:01;33.80;24.80
67196;DHT22;54122;53.538;49.366;2022-07-11T13:28:27;33.90;25.70
67196;DHT22;54122;53.538;49.366;2022-07-11T13:30:54;33.90;25.30
67196;DHT22;54122;53.538;49.366;2022-07-11T13:33:20;33.80;25.10
67196;DHT22;54122;53.538;49.366;2022-07-11T13:35:48;33.80;25.20
67196;DHT22;54122;53.538;49.366;2022-07-11T13:38:18;33.80;25.40
67196;DHT22;54122;53.538;49.366;2022-07-11T13:40:45;33.80;25.90
67196;DHT22;54122;53.538;49.366;2022-07-11T13:43:11;33.80;26.20
67196;DHT22;54122;53.538;49.366;2022-07-11T13:45:39;33.80;25.80
67196;DHT22;54122;53.538;49.366;2022-07-11T13:48:06;33.80;25.40
67196;DHT22;54122;53.538;49.366;2022-07-11T13:50:33;33.80;25.40
67196;DHT22;54122;53.538;49.366;2022-07-11T13:52:59;33.80;24.80
67196;DHT22;54122;53.538;49.366;2022-07-11T13:55:26;33.80;26.00
67196;DHT22;54122;53.538;49.366;2022-07-11T13:57:57;33.70;25.40
67196;DHT22;54122;53.538;49.366;2022-07-11T14:00:24;33.70;26.00
67196;DHT22;54122;53.538;49.366;2022-07-11T14:02:54;33.60;25.30
67196;DHT22;54122;53.538;49.366;2022-07-11T14:05:20;33.60;25.70
67196;DHT22;54122;53.538;49.366;2022-07-11T14:07:47;33.60;25.70
67196;DHT22;54122;53.538;49.366;2022-07-11T14:10:13;33.50;26.00
67196;DHT22;54122;53.538;49.366;2022-07-11T14:12:40;33.60;26.00
67196;DHT22;54122;53.538;49.366;2022-07-11T14:15:07;33.60;26.00
67196;DHT22;54122;53.538;49.366;2022-07-11T14:17:37;33.50;26.30
67196;DHT22;54122;53.538;49.366;2022-07-11T14:20:04;33.50;26.00
67196;DHT22;54122;53.538;49.366;2022-07-11T14:22:30;33.50;27.70
67196;DHT22;54122;53.538;49.366;2022-07-11T14:24:57;33.40;26.70
67196;DHT22;54122;53.538;49.366;2022-07-11T14:27:23;33.40;27.20
67196;DHT22;54122;53.538;49.366;2022-07-11T14:29:51;33.30;27.80
67196;DHT22;54122;53.538;49.366;2022-07-11T14:32:17;33.30;27.80
67196;DHT22;54122;53.538;49.366;2022-07-11T14:34:44;33.20;27.60
67196;DHT22;54122;53.538;49.366;2022-07-11T14:37:10;33.20;27.90
67196;DHT22;54122;53.538;49.366;2022-07-11T14:39:36;33.20;28.30
67196;DHT22;54122;53.538;49.366;2022-07-11T14:42:03;33.10;27.80
67196;DHT22;54122;53.538;49.366;2022-07-11T14:44:29;33.10;27.90
67196;DHT22;54122;53.538;49.366;2022-07-11T14:46:55;33.10;28.00
67196;DHT22;54122;53.538;49.366;2022-07-11T14:49:22;33.00;29.90
67196;DHT22;54122;53.538;49.366;2022-07-11T14:51:49;33.00;30.90
67196;DHT22;54122;53.538;49.366;2022-07-11T14:54:15;32.80;31.80
67196;DHT22;54122;53.538;49.366;2022-07-11T14:56:42;32.60;29.70
67196;DHT22;54122;53.538;49.366;2022-07-11T14:59:08;32.50;34.00
67196;DHT22;54122;53.538;49.366;2022-07-11T15:01:34;32.40;35.80
67196;DHT22;54122;53.538;49.366;2022-07-11T15:04:01;32.30;37.10
67196;DHT22;54122;53.538;49.366;2022-07-11T15:06:30;32.10;35.60
67196;DHT22;54122;53.538;49.366;2022-07-11T15:09:15;32.00;38.10
67196;DHT22;54122;53.538;49.366;2022-07-11T15:11:59;31.80;34.50
67196;DHT22;54122;53.538;49.366;2022-07-11T15:14:44;31.70;34.70
67196;DHT22;54122;53.538;49.366;2022-07-11T15:17:10;31.60;37.60
67196;DHT22;54122;53.538;49.366;2022-07-11T15:19:36;31.50;33.60
67196;DHT22;54122;53.538;49.366;2022-07-11T15:22:02;31.40;34.10
67196;DHT22;54122;53.538;49.366;2022-07-11T15:24:29;31.40;34.40
67196;DHT22;54122;53.538;49.366;2022-07-11T15:26:55;31.30;36.20
67196;DHT22;54122;53.538;49.366;2022-07-11T15:29:25;31.20;37.80
67196;DHT22;54122;53.538;49.366;2022-07-11T15:31:51;31.00;36.30
67196;DHT22;54122;53.538;49.366;2022-07-11T15:34:18;30.90;35.50
67196;DHT22;54122;53.538;49.366;2022-07-11T15:36:46;30.80;35.50
67196;DHT22;54122;53.538;49.366;2022-07-11T15:39:12;30.80;37.80
67196;DHT22;54122;53.538;49.366;2022-07-11T15:41:38;30.70;37.70
67196;DHT22;54122;53.538;49.366;2022-07-11T15:44:05;30.60;38.30
67196;DHT22;54122;53.538;49.366;2022-07-11T15:46:34;30.50;39.50
67196;DHT22;54122;53.538;49.366;2022-07-11T15:49:01;30.40;39.70
67196;DHT22;54122;53.538;49.366;2022-07-11T15:51:27;30.20;38.80
67196;DHT22;54122;53.538;49.366;2022-07-11T15:53:55;30.10;39.80